sensor_id;sensor_type;location;lat;lon;timestamp;P1;durP1;ratioP1;P2;durP2;ratioP2
1601;SDS011;794;48.592;9.634;2023-02-28T00:02:24;3.70;;;3.40;;
1601;SDS011;794;48.592;9.634;2023-02-28T00:04:51;3.73;;;2.90;;
1601;SDS011;794;48.592;9.634;2023-02-28T00:07:26;4.60;;;3.40;;
1601;SDS011;794;48.592;9.634;2023-02-28T00:09:53;4.30;;;3.83;;
1601;SDS011;794;48.592;9.634;2023-02-28T00:12:21;2.63;;;2.37;;
1601;SDS011;794;48.592;9.634;2023-02-28T00:14:48;3.67;;;2.63;;
1601;SDS011;794;48.592;9.634;2023-02-28T00:17:15;5.70;;;2.90;;
1601;SDS011;794;48.592;9.634;2023-02-28T00:19:46;3.33;;;3.03;;
1601;SDS011;794;48.592;9.634;2023-02-28T00:22:13;4.50;;;3.23;;
1601;SDS011;794;48.592;9.634;2023-02-28T00:24:40;3.80;;;3.30;;
1601;SDS011;794;48.592;9.634;2023-02-28T00:27:07;3.60;;;3.30;;
1601;SDS011;794;48.592;9.634;2023-02-28T00:29:36;4.50;;;4.10;;
1601;SDS011;794;48.592;9.634;2023-02-28T00:32:03;3.30;;;3.00;;
1601;SDS011;794;48.592;9.634;2023-02-28T00:34:31;3.70;;;3.33;;
1601;SDS011;794;48.592;9.634;2023-02-28T00:37:03;6.50;;;4.03;;
1601;SDS011;794;48.592;9.634;2023-02-28T00:39:32;3.67;;;3.43;;
1601;SDS011;794;48.592;9.634;2023-02-28T00:42:00;4.47;;;3.47;;
1601;SDS011;794;48.592;9.634;2023-02-28T00:44:27;4.80;;;3.63;;
1601;SDS011;794;48.592;9.634;2023-02-28T00:46:56;4.70;;;3.40;;
1601;SDS011;794;48.592;9.634;2023-02-28T00:49:24;4.37;;;3.80;;
1601;SDS011;794;48.592;9.634;2023-02-28T00:51:51;3.83;;;3.47;;
1601;SDS011;794;48.592;9.634;2023-02-28T00:54:18;6.23;;;3.77;;
1601;SDS011;794;48.592;9.634;2023-02-28T00:56:46;2.87;;;2.73;;
1601;SDS011;794;48.592;9.634;2023-02-28T00:59:13;3.10;;;2.90;;
1601;SDS011;794;48.592;9.634;2023-02-28T01:01:40;3.40;;;3.10;;
1601;SDS011;794;48.592;9.634;2023-02-28T01:04:09;3.77;;;3.40;;
1601;SDS011;794;48.592;9.634;2023-02-28T01:06:36;7.07;;;4.27;;
1601;SDS011;794;48.592;9.634;2023-02-28T01:09:04;4.80;;;3.87;;
1601;SDS011;794;48.592;9.634;2023-02-28T01:11:31;6.07;;;4.60;;
1601;SDS011;794;48.592;9.634;2023-02-28T01:13:59;3.33;;;3.03;;
1601;SDS011;794;48.592;9.634;2023-02-28T01:16:26;3.33;;;3.10;;
1601;SDS011;794;48.592;9.634;2023-02-28T01:18:54;4.57;;;3.47;;
1601;SDS011;794;48.592;9.634;2023-02-28T01:21:22;4.60;;;3.27;;
1601;SDS011;794;48.592;9.634;2023-02-28T01:23:49;9.00;;;4.00;;
1601;SDS011;794;48.592;9.634;2023-02-28T01:26:17;4.03;;;3.63;;
1601;SDS011;794;48.592;9.634;2023-02-28T01:28:45;3.80;;;3.33;;
1601;SDS011;794;48.592;9.634;2023-02-28T01:31:12;3.23;;;3.00;;
1601;SDS011;794;48.592;9.634;2023-02-28T01:33:39;3.20;;;2.90;;
1601;SDS011;794;48.592;9.634;2023-02-28T01:36:09;3.57;;;3.23;;
1601;SDS011;794;48.592;9.634;2023-02-28T01:38:38;3.77;;;3.37;;
1601;SDS011;794;48.592;9.634;2023-02-28T01:41:06;4.30;;;3.90;;
1601;SDS011;794;48.592;9.634;2023-02-28T01:46:20;5.70;;;3.90;;
1601;SDS011;794;48.592;9.634;2023-02-28T01:48:49;4.30;;;3.83;;
1601;SDS011;794;48.592;9.634;2023-02-28T01:51:22;3.40;;;2.90;;
1601;SDS011;794;48.592;9.634;2023-02-28T01:53:54;3.97;;;3.33;;
1601;SDS011;794;48.592;9.634;2023-02-28T01:56:25;3.47;;;3.17;;
1601;SDS011;794;48.592;9.634;2023-02-28T01:58:55;5.03;;;4.00;;
1601;SDS011;794;48.592;9.634;2023-02-28T02:01:22;5.87;;;3.47;;
1601;SDS011;794;48.592;9.634;2023-02-28T02:03:52;2.90;;;2.60;;
1601;SDS011;794;48.592;9.634;2023-02-28T02:06:21;4.13;;;3.83;;
1601;SDS011;794;48.592;9.634;2023-02-28T02:08:49;3.73;;;3.40;;
1601;SDS011;794;48.592;9.634;2023-02-28T02:11:19;3.07;;;2.70;;
1601;SDS011;794;48.592;9.634;2023-02-28T02:13:56;4.03;;;3.30;;
1601;SDS011;794;48.592;9.634;2023-02-28T02:16:51;3.67;;;3.27;;
1601;SDS011;794;48.592;9.634;2023-02-28T02:19:33;3.23;;;3.03;;
1601;SDS011;794;48.592;9.634;2023-02-28T02:22:40;6.07;;;3.90;;
1601;SDS011;794;48.592;9.634;2023-02-28T02:25:23;3.30;;;3.00;;
1601;SDS011;794;48.592;9.634;2023-02-28T02:27:59;5.13;;;4.50;;
1601;SDS011;794;48.592;9.634;2023-02-28T02:33:49;5.73;;;3.53;;
1601;SDS011;794;48.592;9.634;2023-02-28T02:36:41;4.70;;;4.30;;
1601;SDS011;794;48.592;9.634;2023-02-28T02:39:14;4.77;;;4.37;;
1601;SDS011;794;48.592;9.634;2023-02-28T02:41:46;4.20;;;3.80;;
1601;SDS011;794;48.592;9.634;2023-02-28T02:44:18;5.37;;;3.90;;
1601;SDS011;794;48.592;9.634;2023-02-28T02:46:48;8.03;;;4.30;;
1601;SDS011;794;48.592;9.634;2023-02-28T02:49:19;3.63;;;3.03;;
1601;SDS011;794;48.592;9.634;2023-02-28T02:51:50;5.50;;;4.47;;
1601;SDS011;794;48.592;9.634;2023-02-28T02:54:21;5.83;;;4.40;;
1601;SDS011;794;48.592;9.634;2023-02-28T02:56:54;4.97;;;4.47;;
1601;SDS011;794;48.592;9.634;2023-02-28T02:59:23;5.33;;;4.20;;
1601;SDS011;794;48.592;9.634;2023-02-28T03:01:54;3.80;;;3.07;;
1601;SDS011;794;48.592;9.634;2023-02-28T03:04:24;4.37;;;3.97;;
1601;SDS011;794;48.592;9.634;2023-02-28T03:06:55;4.70;;;3.40;;
1601;SDS011;794;48.592;9.634;2023-02-28T03:09:22;4.60;;;4.20;;
1601;SDS011;794;48.592;9.634;2023-02-28T03:11:51;6.03;;;5.10;;
1601;SDS011;794;48.592;9.634;2023-02-28T03:14:29;6.93;;;4.50;;
1601;SDS011;794;48.592;9.634;2023-02-28T03:20:00;4.67;;;3.83;;
1601;SDS011;794;48.592;9.634;2023-02-28T03:22:39;6.70;;;5.00;;
1601;SDS011;794;48.592;9.634;2023-02-28T03:25:17;6.60;;;4.60;;
1601;SDS011;794;48.592;9.634;2023-02-28T03:27:55;6.23;;;4.30;;
1601;SDS011;794;48.592;9.634;2023-02-28T03:30:29;5.63;;;4.73;;
1601;SDS011;794;48.592;9.634;2023-02-28T03:33:03;9.13;;;4.90;;
1601;SDS011;794;48.592;9.634;2023-02-28T03:35:34;6.87;;;4.63;;
1601;SDS011;794;48.592;9.634;2023-02-28T03:38:07;6.07;;;5.50;;
1601;SDS011;794;48.592;9.634;2023-02-28T03:40:39;5.10;;;4.60;;
1601;SDS011;794;48.592;9.634;2023-02-28T03:43:12;6.00;;;5.20;;
1601;SDS011;794;48.592;9.634;2023-02-28T03:45:43;5.23;;;4.83;;
1601;SDS011;794;48.592;9.634;2023-02-28T03:48:12;4.70;;;3.70;;
1601;SDS011;794;48.592;9.634;2023-02-28T03:50:43;6.23;;;4.40;;
1601;SDS011;794;48.592;9.634;2023-02-28T03:53:16;4.50;;;4.10;;
1601;SDS011;794;48.592;9.634;2023-02-28T03:55:47;5.13;;;4.73;;
1601;SDS011;794;48.592;9.634;2023-02-28T03:58:20;6.37;;;5.33;;
1601;SDS011;794;48.592;9.634;2023-02-28T04:00:52;6.40;;;5.10;;
1601;SDS011;794;48.592;9.634;2023-02-28T04:03:24;6.77;;;5.80;;
1601;SDS011;794;48.592;9.634;2023-02-28T04:05:52;8.13;;;5.53;;
1601;SDS011;794;48.592;9.634;2023-02-28T04:08:22;10.27;;;5.07;;
1601;SDS011;794;48.592;9.634;2023-02-28T04:10:50;5.20;;;4.70;;
1601;SDS011;794;48.592;9.634;2023-02-28T04:13:22;6.80;;;5.20;;
1601;SDS011;794;48.592;9.634;2023-02-28T04:15:49;7.77;;;5.90;;
1601;SDS011;794;48.592;9.634;2023-02-28T04:18:16;7.40;;;6.07;;
1601;SDS011;794;48.592;9.634;2023-02-28T04:20:43;6.03;;;4.60;;
1601;SDS011;794;48.592;9.634;2023-02-28T04:23:10;5.60;;;5.10;;
1601;SDS011;794;48.592;9.634;2023-02-28T04:25:38;6.10;;;5.03;;
1601;SDS011;794;48.592;9.634;2023-02-28T04:28:06;7.20;;;5.07;;
1601;SDS011;794;48.592;9.634;2023-02-28T04:30:33;9.40;;;4.63;;
1601;SDS011;794;48.592;9.634;2023-02-28T04:33:00;7.00;;;6.30;;
1601;SDS011;794;48.592;9.634;2023-02-28T04:35:27;6.50;;;5.37;;
1601;SDS011;794;48.592;9.634;2023-02-28T04:37:54;6.20;;;5.70;;
1601;SDS011;794;48.592;9.634;2023-02-28T04:40:20;7.83;;;6.40;;
1601;SDS011;794;48.592;9.634;2023-02-28T04:42:49;6.40;;;5.90;;
1601;SDS011;794;48.592;9.634;2023-02-28T04:45:16;8.70;;;5.83;;
1601;SDS011;794;48.592;9.634;2023-02-28T04:47:43;6.00;;;5.47;;
1601;SDS011;794;48.592;9.634;2023-02-28T04:50:10;7.50;;;6.50;;
1601;SDS011;794;48.592;9.634;2023-02-28T04:52:37;5.57;;;4.73;;
1601;SDS011;794;48.592;9.634;2023-02-28T04:55:04;5.90;;;5.33;;
1601;SDS011;794;48.592;9.634;2023-02-28T04:57:32;6.83;;;6.10;;
1601;SDS011;794;48.592;9.634;2023-02-28T05:00:00;9.80;;;5.50;;
1601;SDS011;794;48.592;9.634;2023-02-28T05:02:29;7.07;;;5.63;;
1601;SDS011;794;48.592;9.634;2023-02-28T05:04:56;6.03;;;5.43;;
1601;SDS011;794;48.592;9.634;2023-02-28T05:07:23;6.17;;;5.57;;
1601;SDS011;794;48.592;9.634;2023-02-28T05:09:50;8.03;;;6.23;;
1601;SDS011;794;48.592;9.634;2023-02-28T05:12:18;7.63;;;6.60;;
1601;SDS011;794;48.592;9.634;2023-02-28T05:14:45;6.87;;;5.67;;
1601;SDS011;794;48.592;9.634;2023-02-28T05:17:13;6.17;;;5.10;;
1601;SDS011;794;48.592;9.634;2023-02-28T05:19:40;7.20;;;5.17;;
1601;SDS011;794;48.592;9.634;2023-02-28T05:22:11;7.07;;;6.37;;
1601;SDS011;794;48.592;9.634;2023-02-28T05:24:39;6.27;;;5.63;;
1601;SDS011;794;48.592;9.634;2023-02-28T05:27:07;6.30;;;5.53;;
1601;SDS011;794;48.592;9.634;2023-02-28T05:29:35;8.17;;;6.77;;
1601;SDS011;794;48.592;9.634;2023-02-28T05:32:06;8.70;;;6.90;;
1601;SDS011;794;48.592;9.634;2023-02-28T05:34:37;7.83;;;6.20;;
1601;SDS011;794;48.592;9.634;2023-02-28T05:37:04;6.73;;;6.03;;
1601;SDS011;794;48.592;9.634;2023-02-28T05:39:32;8.53;;;6.10;;
1601;SDS011;794;48.592;9.634;2023-02-28T05:41:59;9.30;;;7.00;;
1601;SDS011;794;48.592;9.634;2023-02-28T05:44:26;6.23;;;5.63;;
1601;SDS011;794;48.592;9.634;2023-02-28T05:46:53;9.33;;;6.73;;
1601;SDS011;794;48.592;9.634;2023-02-28T05:49:19;8.67;;;6.47;;
1601;SDS011;794;48.592;9.634;2023-02-28T05:51:48;7.40;;;6.60;;
1601;SDS011;794;48.592;9.634;2023-02-28T05:54:15;7.60;;;6.83;;
1601;SDS011;794;48.592;9.634;2023-02-28T05:56:42;9.30;;;7.67;;
1601;SDS011;794;48.592;9.634;2023-02-28T05:59:10;7.70;;;5.93;;
1601;SDS011;794;48.592;9.634;2023-02-28T06:01:38;8.40;;;7.10;;
1601;SDS011;794;48.592;9.634;2023-02-28T06:04:07;7.10;;;6.17;;
1601;SDS011;794;48.592;9.634;2023-02-28T06:06:35;8.40;;;6.33;;
1601;SDS011;794;48.592;9.634;2023-02-28T06:09:05;10.73;;;7.93;;
1601;SDS011;794;48.592;9.634;2023-02-28T06:11:33;7.23;;;5.90;;
1601;SDS011;794;48.592;9.634;2023-02-28T06:14:00;9.73;;;6.97;;
1601;SDS011;794;48.592;9.634;2023-02-28T06:16:27;8.53;;;7.30;;
1601;SDS011;794;48.592;9.634;2023-02-28T06:18:56;8.17;;;7.37;;
1601;SDS011;794;48.592;9.634;2023-02-28T06:21:24;7.13;;;6.50;;
1601;SDS011;794;48.592;9.634;2023-02-28T06:23:52;9.40;;;8.47;;
1601;SDS011;794;48.592;9.634;2023-02-28T06:26:21;6.13;;;5.50;;
1601;SDS011;794;48.592;9.634;2023-02-28T06:28:48;8.07;;;7.27;;
1601;SDS011;794;48.592;9.634;2023-02-28T06:31:16;13.87;;;7.20;;
1601;SDS011;794;48.592;9.634;2023-02-28T06:33:43;7.50;;;6.40;;
1601;SDS011;794;48.592;9.634;2023-02-28T06:36:12;7.90;;;6.80;;
1601;SDS011;794;48.592;9.634;2023-02-28T06:38:40;10.23;;;7.07;;
1601;SDS011;794;48.592;9.634;2023-02-28T06:41:07;11.80;;;8.77;;
1601;SDS011;794;48.592;9.634;2023-02-28T06:43:36;9.53;;;7.80;;
1601;SDS011;794;48.592;9.634;2023-02-28T06:46:06;8.50;;;7.53;;
1601;SDS011;794;48.592;9.634;2023-02-28T06:48:33;10.07;;;7.37;;
1601;SDS011;794;48.592;9.634;2023-02-28T06:51:01;10.40;;;7.80;;
1601;SDS011;794;48.592;9.634;2023-02-28T06:53:29;9.00;;;7.70;;
1601;SDS011;794;48.592;9.634;2023-02-28T06:55:56;8.73;;;7.77;;
1601;SDS011;794;48.592;9.634;2023-02-28T06:58:23;9.50;;;7.10;;
1601;SDS011;794;48.592;9.634;2023-02-28T07:00:52;13.93;;;9.63;;
1601;SDS011;794;48.592;9.634;2023-02-28T07:03:19;11.87;;;8.30;;
1601;SDS011;794;48.592;9.634;2023-02-28T07:05:46;11.27;;;9.00;;
1601;SDS011;794;48.592;9.634;2023-02-28T07:08:13;11.47;;;8.37;;
1601;SDS011;794;48.592;9.634;2023-02-28T07:10:40;11.60;;;9.07;;
1601;SDS011;794;48.592;9.634;2023-02-28T07:13:07;14.90;;;9.37;;
1601;SDS011;794;48.592;9.634;2023-02-28T07:15:35;9.80;;;8.47;;
1601;SDS011;794;48.592;9.634;2023-02-28T07:18:03;10.13;;;8.20;;
1601;SDS011;794;48.592;9.634;2023-02-28T07:20:31;12.53;;;7.80;;
1601;SDS011;794;48.592;9.634;2023-02-28T07:22:57;15.07;;;10.50;;
1601;SDS011;794;48.592;9.634;2023-02-28T07:25:26;8.83;;;7.87;;
1601;SDS011;794;48.592;9.634;2023-02-28T07:27:54;11.70;;;9.47;;
1601;SDS011;794;48.592;9.634;2023-02-28T07:30:22;13.80;;;11.03;;
1601;SDS011;794;48.592;9.634;2023-02-28T07:32:49;14.03;;;10.60;;
1601;SDS011;794;48.592;9.634;2023-02-28T07:35:17;13.43;;;10.17;;
1601;SDS011;794;48.592;9.634;2023-02-28T07:37:44;13.07;;;9.47;;
1601;SDS011;794;48.592;9.634;2023-02-28T07:40:12;13.70;;;10.40;;
1601;SDS011;794;48.592;9.634;2023-02-28T07:42:40;11.10;;;8.70;;
1601;SDS011;794;48.592;9.634;2023-02-28T07:45:08;14.30;;;9.30;;
1601;SDS011;794;48.592;9.634;2023-02-28T07:47:36;11.30;;;9.70;;
1601;SDS011;794;48.592;9.634;2023-02-28T07:50:04;13.20;;;9.60;;
1601;SDS011;794;48.592;9.634;2023-02-28T07:52:33;12.40;;;10.13;;
1601;SDS011;794;48.592;9.634;2023-02-28T07:55:00;15.20;;;10.80;;
1601;SDS011;794;48.592;9.634;2023-02-28T07:57:27;13.17;;;9.67;;
1601;SDS011;794;48.592;9.634;2023-02-28T07:59:54;14.20;;;9.90;;
1601;SDS011;794;48.592;9.634;2023-02-28T08:02:20;16.50;;;12.50;;
1601;SDS011;794;48.592;9.634;2023-02-28T08:04:47;8.40;;;7.60;;
1601;SDS011;794;48.592;9.634;2023-02-28T08:07:15;14.13;;;9.80;;
1601;SDS011;794;48.592;9.634;2023-02-28T08:09:44;11.00;;;9.10;;
1601;SDS011;794;48.592;9.634;2023-02-28T08:12:11;12.23;;;10.83;;
1601;SDS011;794;48.592;9.634;2023-02-28T08:14:38;13.07;;;10.40;;
1601;SDS011;794;48.592;9.634;2023-02-28T08:17:05;13.47;;;9.60;;
1601;SDS011;794;48.592;9.634;2023-02-28T08:19:33;10.20;;;8.20;;
1601;SDS011;794;48.592;9.634;2023-02-28T08:22:00;13.73;;;9.47;;
1601;SDS011;794;48.592;9.634;2023-02-28T08:24:26;8.33;;;7.53;;
1601;SDS011;794;48.592;9.634;2023-02-28T08:26:55;12.40;;;11.20;;
1601;SDS011;794;48.592;9.634;2023-02-28T08:29:22;8.40;;;7.60;;
1601;SDS011;794;48.592;9.634;2023-02-28T08:31:49;11.30;;;8.37;;
1601;SDS011;794;48.592;9.634;2023-02-28T08:34:16;9.67;;;8.67;;
1601;SDS011;794;48.592;9.634;2023-02-28T08:36:43;12.70;;;9.50;;
1601;SDS011;794;48.592;9.634;2023-02-28T08:39:11;11.27;;;10.07;;
1601;SDS011;794;48.592;9.634;2023-02-28T08:41:38;14.47;;;9.70;;
1601;SDS011;794;48.592;9.634;2023-02-28T08:44:06;12.93;;;9.40;;
1601;SDS011;794;48.592;9.634;2023-02-28T08:46:33;8.93;;;8.03;;
1601;SDS011;794;48.592;9.634;2023-02-28T08:49:00;15.57;;;10.80;;
1601;SDS011;794;48.592;9.634;2023-02-28T08:51:27;15.30;;;9.13;;
1601;SDS011;794;48.592;9.634;2023-02-28T08:53:57;13.60;;;8.27;;
1601;SDS011;794;48.592;9.634;2023-02-28T08:56:26;15.90;;;10.20;;
1601;SDS011;794;48.592;9.634;2023-02-28T08:58:54;11.60;;;10.13;;
1601;SDS011;794;48.592;9.634;2023-02-28T09:01:25;13.40;;;9.83;;
1601;SDS011;794;48.592;9.634;2023-02-28T09:03:54;13.57;;;9.90;;
1601;SDS011;794;48.592;9.634;2023-02-28T09:06:22;14.63;;;10.30;;
1601;SDS011;794;48.592;9.634;2023-02-28T09:08:52;15.43;;;12.43;;
1601;SDS011;794;48.592;9.634;2023-02-28T09:11:19;13.27;;;9.37;;
1601;SDS011;794;48.592;9.634;2023-02-28T09:13:46;10.50;;;7.43;;
1601;SDS011;794;48.592;9.634;2023-02-28T09:16:13;10.73;;;9.63;;
1601;SDS011;794;48.592;9.634;2023-02-28T09:18:43;11.70;;;7.57;;
1601;SDS011;794;48.592;9.634;2023-02-28T09:21:11;8.53;;;7.53;;
1601;SDS011;794;48.592;9.634;2023-02-28T09:23:39;11.00;;;8.67;;
1601;SDS011;794;48.592;9.634;2023-02-28T09:26:07;9.63;;;8.73;;
1601;SDS011;794;48.592;9.634;2023-02-28T09:28:39;10.30;;;7.90;;
1601;SDS011;794;48.592;9.634;2023-02-28T09:31:05;11.33;;;7.77;;
1601;SDS011;794;48.592;9.634;2023-02-28T09:33:32;12.67;;;10.03;;
1601;SDS011;794;48.592;9.634;2023-02-28T09:36:02;11.37;;;8.80;;
1601;SDS011;794;48.592;9.634;2023-02-28T09:38:29;11.20;;;9.33;;
1601;SDS011;794;48.592;9.634;2023-02-28T09:40:57;12.27;;;10.60;;
1601;SDS011;794;48.592;9.634;2023-02-28T09:43:27;11.03;;;7.97;;
1601;SDS011;794;48.592;9.634;2023-02-28T09:45:59;11.57;;;9.10;;
1601;SDS011;794;48.592;9.634;2023-02-28T09:48:32;11.70;;;9.53;;
1601;SDS011;794;48.592;9.634;2023-02-28T09:51:04;11.57;;;8.77;;
1601;SDS011;794;48.592;9.634;2023-02-28T09:53:38;13.17;;;9.57;;
1601;SDS011;794;48.592;9.634;2023-02-28T09:56:07;10.67;;;9.57;;
1601;SDS011;794;48.592;9.634;2023-02-28T09:58:36;11.13;;;8.97;;
1601;SDS011;794;48.592;9.634;2023-02-28T10:01:09;15.10;;;11.23;;
1601;SDS011;794;48.592;9.634;2023-02-28T10:03:47;15.23;;;10.83;;
1601;SDS011;794;48.592;9.634;2023-02-28T10:06:25;9.80;;;8.87;;
1601;SDS011;794;48.592;9.634;2023-02-28T10:08:56;13.50;;;10.67;;
1601;SDS011;794;48.592;9.634;2023-02-28T10:11:27;13.87;;;9.63;;
1601;SDS011;794;48.592;9.634;2023-02-28T10:13:59;14.13;;;9.50;;
1601;SDS011;794;48.592;9.634;2023-02-28T10:16:30;12.10;;;10.10;;
1601;SDS011;794;48.592;9.634;2023-02-28T10:19:02;13.93;;;10.80;;
1601;SDS011;794;48.592;9.634;2023-02-28T10:21:35;12.50;;;10.10;;
1601;SDS011;794;48.592;9.634;2023-02-28T10:24:13;12.47;;;8.87;;
1601;SDS011;794;48.592;9.634;2023-02-28T10:26:49;12.87;;;10.50;;
1601;SDS011;794;48.592;9.634;2023-02-28T10:29:23;14.10;;;10.30;;
1601;SDS011;794;48.592;9.634;2023-02-28T10:31:50;12.67;;;9.70;;
1601;SDS011;794;48.592;9.634;2023-02-28T10:34:17;11.93;;;9.23;;
1601;SDS011;794;48.592;9.634;2023-02-28T10:36:45;19.43;;;10.70;;
1601;SDS011;794;48.592;9.634;2023-02-28T10:39:33;12.13;;;9.30;;
1601;SDS011;794;48.592;9.634;2023-02-28T10:42:02;12.50;;;9.07;;
1601;SDS011;794;48.592;9.634;2023-02-28T10:44:29;13.20;;;10.43;;
1601;SDS011;794;48.592;9.634;2023-02-28T10:47:01;13.40;;;11.10;;
1601;SDS011;794;48.592;9.634;2023-02-28T10:49:28;13.47;;;12.10;;
1601;SDS011;794;48.592;9.634;2023-02-28T10:51:57;13.40;;;12.13;;
1601;SDS011;794;48.592;9.634;2023-02-28T10:54:27;16.63;;;11.43;;
1601;SDS011;794;48.592;9.634;2023-02-28T10:57:07;11.60;;;10.40;;
1601;SDS011;794;48.592;9.634;2023-02-28T10:59:40;14.47;;;9.73;;
1601;SDS011;794;48.592;9.634;2023-02-28T11:04:56;14.10;;;11.10;;
1601;SDS011;794;48.592;9.634;2023-02-28T11:07:25;14.87;;;11.00;;
1601;SDS011;794;48.592;9.634;2023-02-28T11:09:53;13.63;;;10.20;;
1601;SDS011;794;48.592;9.634;2023-02-28T11:12:22;11.43;;;10.40;;
1601;SDS011;794;48.592;9.634;2023-02-28T11:14:53;9.90;;;8.60;;
1601;SDS011;794;48.592;9.634;2023-02-28T11:17:23;12.40;;;9.00;;
1601;SDS011;794;48.592;9.634;2023-02-28T11:19:52;11.17;;;9.50;;
1601;SDS011;794;48.592;9.634;2023-02-28T11:22:22;12.30;;;11.10;;
1601;SDS011;794;48.592;9.634;2023-02-28T11:27:47;11.87;;;9.80;;
1601;SDS011;794;48.592;9.634;2023-02-28T11:33:18;16.70;;;13.40;;
1601;SDS011;794;48.592;9.634;2023-02-28T11:35:49;14.00;;;10.60;;
1601;SDS011;794;48.592;9.634;2023-02-28T11:38:18;10.60;;;8.67;;
1601;SDS011;794;48.592;9.634;2023-02-28T11:40:47;11.60;;;9.47;;
1601;SDS011;794;48.592;9.634;2023-02-28T11:43:23;15.30;;;10.00;;
1601;SDS011;794;48.592;9.634;2023-02-28T11:46:09;11.17;;;9.40;;
1601;SDS011;794;48.592;9.634;2023-02-28T11:48:46;12.67;;;10.10;;
1601;SDS011;794;48.592;9.634;2023-02-28T11:51:21;11.00;;;9.03;;
1601;SDS011;794;48.592;9.634;2023-02-28T11:54:06;10.53;;;8.83;;
1601;SDS011;794;48.592;9.634;2023-02-28T11:56:53;10.90;;;8.93;;
1601;SDS011;794;48.592;9.634;2023-02-28T11:59:30;13.20;;;10.20;;
1601;SDS011;794;48.592;9.634;2023-02-28T12:02:17;11.80;;;10.80;;
1601;SDS011;794;48.592;9.634;2023-02-28T12:04:52;16.90;;;10.30;;
1601;SDS011;794;48.592;9.634;2023-02-28T12:07:37;11.30;;;10.10;;
1601;SDS011;794;48.592;9.634;2023-02-28T12:10:16;14.87;;;10.00;;
1601;SDS011;794;48.592;9.634;2023-02-28T12:12:51;11.40;;;9.03;;
1601;SDS011;794;48.592;9.634;2023-02-28T12:15:41;12.33;;;9.77;;
1601;SDS011;794;48.592;9.634;2023-02-28T12:18:21;12.03;;;9.37;;
1601;SDS011;794;48.592;9.634;2023-02-28T12:21:01;8.67;;;7.80;;
1601;SDS011;794;48.592;9.634;2023-02-28T12:23:42;11.47;;;8.47;;
1601;SDS011;794;48.592;9.634;2023-02-28T12:26:30;12.30;;;8.90;;
1601;SDS011;794;48.592;9.634;2023-02-28T12:29:04;12.00;;;9.07;;
1601;SDS011;794;48.592;9.634;2023-02-28T12:31:40;11.50;;;8.70;;
1601;SDS011;794;48.592;9.634;2023-02-28T12:34:13;11.53;;;10.27;;
1601;SDS011;794;48.592;9.634;2023-02-28T12:36:43;13.47;;;9.30;;
1601;SDS011;794;48.592;9.634;2023-02-28T12:39:15;11.20;;;9.57;;
1601;SDS011;794;48.592;9.634;2023-02-28T12:41:47;12.77;;;9.20;;
1601;SDS011;794;48.592;9.634;2023-02-28T12:44:19;10.60;;;9.30;;
1601;SDS011;794;48.592;9.634;2023-02-28T12:46:54;11.67;;;8.33;;
1601;SDS011;794;48.592;9.634;2023-02-28T12:49:25;10.57;;;9.30;;
1601;SDS011;794;48.592;9.634;2023-02-28T12:51:57;12.37;;;11.17;;
1601;SDS011;794;48.592;9.634;2023-02-28T12:54:28;13.57;;;10.33;;
1601;SDS011;794;48.592;9.634;2023-02-28T12:57:01;11.43;;;9.87;;
1601;SDS011;794;48.592;9.634;2023-02-28T12:59:37;12.20;;;9.57;;
1601;SDS011;794;48.592;9.634;2023-02-28T13:05:26;11.57;;;8.93;;
1601;SDS011;794;48.592;9.634;2023-02-28T13:10:50;13.43;;;10.60;;
1601;SDS011;794;48.592;9.634;2023-02-28T13:13:22;9.97;;;8.40;;
1601;SDS011;794;48.592;9.634;2023-02-28T13:16:02;11.90;;;8.90;;
1601;SDS011;794;48.592;9.634;2023-02-28T13:18:35;9.60;;;8.07;;
1601;SDS011;794;48.592;9.634;2023-02-28T13:21:04;14.40;;;7.83;;
1601;SDS011;794;48.592;9.634;2023-02-28T13:23:37;10.70;;;7.90;;
1601;SDS011;794;48.592;9.634;2023-02-28T13:26:23;13.13;;;8.50;;
1601;SDS011;794;48.592;9.634;2023-02-28T13:29:25;10.50;;;9.37;;
1601;SDS011;794;48.592;9.634;2023-02-28T13:35:12;12.63;;;8.50;;
1601;SDS011;794;48.592;9.634;2023-02-28T13:38:01;10.40;;;9.37;;
1601;SDS011;794;48.592;9.634;2023-02-28T13:40:56;10.73;;;9.63;;
1601;SDS011;794;48.592;9.634;2023-02-28T13:44:04;10.87;;;9.77;;
1601;SDS011;794;48.592;9.634;2023-02-28T13:46:35;13.00;;;8.47;;
1601;SDS011;794;48.592;9.634;2023-02-28T13:49:24;13.80;;;8.87;;
1601;SDS011;794;48.592;9.634;2023-02-28T13:51:53;10.97;;;9.77;;
1601;SDS011;794;48.592;9.634;2023-02-28T13:54:33;11.90;;;8.20;;
1601;SDS011;794;48.592;9.634;2023-02-28T13:57:12;11.80;;;8.17;;
1601;SDS011;794;48.592;9.634;2023-02-28T13:59:56;8.40;;;7.60;;
1601;SDS011;794;48.592;9.634;2023-02-28T14:02:48;9.87;;;8.53;;
1601;SDS011;794;48.592;9.634;2023-02-28T14:05:37;11.00;;;7.70;;
1601;SDS011;794;48.592;9.634;2023-02-28T14:08:05;11.93;;;9.37;;
1601;SDS011;794;48.592;9.634;2023-02-28T14:10:39;11.13;;;8.10;;
1601;SDS011;794;48.592;9.634;2023-02-28T14:13:14;8.13;;;7.33;;
1601;SDS011;794;48.592;9.634;2023-02-28T14:15:56;10.03;;;7.93;;
1601;SDS011;794;48.592;9.634;2023-02-28T14:18:27;11.30;;;9.10;;
1601;SDS011;794;48.592;9.634;2023-02-28T14:21:08;10.20;;;7.80;;
1601;SDS011;794;48.592;9.634;2023-02-28T14:32:26;9.37;;;7.60;;
1601;SDS011;794;48.592;9.634;2023-02-28T14:35:02;9.77;;;8.63;;
1601;SDS011;794;48.592;9.634;2023-02-28T14:37:42;13.20;;;7.80;;
1601;SDS011;794;48.592;9.634;2023-02-28T14:40:14;8.80;;;7.90;;
1601;SDS011;794;48.592;9.634;2023-02-28T14:42:46;12.40;;;8.47;;
1601;SDS011;794;48.592;9.634;2023-02-28T14:45:20;9.90;;;8.00;;
1601;SDS011;794;48.592;9.634;2023-02-28T14:47:49;9.10;;;8.00;;
1601;SDS011;794;48.592;9.634;2023-02-28T14:50:19;9.37;;;8.37;;
1601;SDS011;794;48.592;9.634;2023-02-28T14:52:47;11.27;;;9.57;;
1601;SDS011;794;48.592;9.634;2023-02-28T14:55:18;11.30;;;10.10;;
1601;SDS011;794;48.592;9.634;2023-02-28T14:57:52;11.33;;;8.60;;
1601;SDS011;794;48.592;9.634;2023-02-28T15:00:21;12.87;;;9.70;;
1601;SDS011;794;48.592;9.634;2023-02-28T15:02:50;10.80;;;8.10;;
1601;SDS011;794;48.592;9.634;2023-02-28T15:05:29;11.37;;;8.73;;
1601;SDS011;794;48.592;9.634;2023-02-28T15:08:01;14.20;;;9.60;;
1601;SDS011;794;48.592;9.634;2023-02-28T15:10:30;12.53;;;6.70;;
1601;SDS011;794;48.592;9.634;2023-02-28T15:12:58;8.80;;;7.77;;
1601;SDS011;794;48.592;9.634;2023-02-28T15:15:40;9.20;;;6.70;;
1601;SDS011;794;48.592;9.634;2023-02-28T15:18:13;13.70;;;8.87;;
1601;SDS011;794;48.592;9.634;2023-02-28T15:20:48;9.17;;;8.37;;
1601;SDS011;794;48.592;9.634;2023-02-28T15:23:17;9.00;;;6.60;;
1601;SDS011;794;48.592;9.634;2023-02-28T15:25:46;8.70;;;7.20;;
1601;SDS011;794;48.592;9.634;2023-02-28T15:28:14;9.37;;;7.40;;
1601;SDS011;794;48.592;9.634;2023-02-28T15:30:54;11.80;;;8.17;;
1601;SDS011;794;48.592;9.634;2023-02-28T15:33:23;17.53;;;7.97;;
1601;SDS011;794;48.592;9.634;2023-02-28T15:36:03;8.47;;;7.40;;
1601;SDS011;794;48.592;9.634;2023-02-28T15:38:37;9.47;;;8.20;;
1601;SDS011;794;48.592;9.634;2023-02-28T15:41:04;12.10;;;7.83;;
1601;SDS011;794;48.592;9.634;2023-02-28T15:43:34;9.90;;;8.87;;
1601;SDS011;794;48.592;9.634;2023-02-28T15:46:02;9.50;;;8.40;;
1601;SDS011;794;48.592;9.634;2023-02-28T15:48:32;10.70;;;8.10;;
1601;SDS011;794;48.592;9.634;2023-02-28T15:51:06;8.33;;;7.40;;
1601;SDS011;794;48.592;9.634;2023-02-28T15:53:36;9.17;;;8.03;;
1601;SDS011;794;48.592;9.634;2023-02-28T15:56:06;9.03;;;7.70;;
1601;SDS011;794;48.592;9.634;2023-02-28T15:59:02;10.10;;;7.77;;
1601;SDS011;794;48.592;9.634;2023-02-28T16:01:32;11.10;;;9.00;;
1601;SDS011;794;48.592;9.634;2023-02-28T16:04:00;10.50;;;9.07;;
1601;SDS011;794;48.592;9.634;2023-02-28T16:06:36;8.00;;;7.20;;
1601;SDS011;794;48.592;9.634;2023-02-28T16:09:05;8.53;;;7.50;;
1601;SDS011;794;48.592;9.634;2023-02-28T16:11:36;8.73;;;7.50;;
1601;SDS011;794;48.592;9.634;2023-02-28T16:14:06;9.70;;;7.90;;
1601;SDS011;794;48.592;9.634;2023-02-28T16:16:41;11.87;;;8.27;;
1601;SDS011;794;48.592;9.634;2023-02-28T16:19:10;15.50;;;9.10;;
1601;SDS011;794;48.592;9.634;2023-02-28T16:21:38;13.30;;;8.27;;